createdAt,value
2023-03-01T00:01:18.145Z,24.10
2023-03-01T00:05:20.978Z,24.13
2023-03-01T00:09:23.989Z,27.40
2023-03-01T00:13:28.193Z,35.28
2023-03-01T00:17:30.975Z,27.08
2023-03-01T00:21:34.789Z,30.15
2023-03-01T00:25:43.495Z,27.08
2023-03-01T00:29:47.787Z,30.48
2023-03-01T00:33:50.895Z,28.58
2023-03-01T00:37:58.561Z,28.73
2023-03-01T00:42:01.619Z,28.77
2023-03-01T00:46:08.098Z,27.20
2023-03-01T00:54:14.312Z,23.25
2023-03-01T00:58:17.129Z,32.08
2023-03-01T01:02:22.054Z,28.15
2023-03-01T01:06:26.810Z,29.85
2023-03-01T01:10:29.710Z,29.23
2023-03-01T01:14:32.575Z,28.40
2023-03-01T01:18:36.963Z,25.80
2023-03-01T01:22:39.825Z,27.58
2023-03-01T01:26:43.450Z,28.77
2023-03-01T01:30:46.383Z,27.15
2023-03-01T01:34:50.856Z,26.38
2023-03-01T01:38:54.023Z,28.63
2023-03-01T01:42:56.858Z,25.42
2023-03-01T01:47:02.596Z,29.65
2023-03-01T01:51:06.987Z,28.13
2023-03-01T01:55:14.024Z,29.60
2023-03-01T01:59:17.259Z,24.77
2023-03-01T02:03:29.770Z,30.25
2023-03-01T02:07:35.334Z,29.55
2023-03-01T02:11:38.960Z,25.63
2023-03-01T02:15:45.008Z,32.53
2023-03-01T02:20:01.879Z,23.90
2023-03-01T02:24:25.808Z,24.27
2023-03-01T02:28:33.660Z,28.45
2023-03-01T02:32:37.064Z,30.52
2023-03-01T02:36:42.936Z,29.10
2023-03-01T02:44:52.524Z,28.17
2023-03-01T02:48:57.356Z,34.17
2023-03-01T02:53:04.966Z,29.23
2023-03-01T02:57:08.600Z,26.27
2023-03-01T03:01:14.448Z,26.40
2023-03-01T03:05:20.257Z,31.20
2023-03-01T03:09:23.408Z,29.50
2023-03-01T03:13:29.346Z,27.02
2023-03-01T03:17:33.733Z,30.08
2023-03-01T03:21:36.808Z,25.17
2023-03-01T03:25:39.749Z,27.73
2023-03-01T03:29:42.565Z,26.50
2023-03-01T03:33:46.661Z,25.75
2023-03-01T03:38:06.964Z,25.40
2023-03-01T03:42:11.030Z,30.20
2023-03-01T03:46:14.514Z,25.27
2023-03-01T03:50:19.866Z,26.35
2023-03-01T03:54:22.751Z,23.50
2023-03-01T03:58:26.416Z,25.52
2023-03-01T04:02:29.313Z,28.20
2023-03-01T04:06:33.934Z,29.45
2023-03-01T04:10:38.380Z,25.02
2023-03-01T04:14:41.253Z,25.88
2023-03-01T04:18:44.097Z,32.13
2023-03-01T04:22:48.293Z,29.65
2023-03-01T04:26:51.121Z,27.63
2023-03-01T04:30:55.188Z,29.58
2023-03-01T04:34:57.941Z,29.25
2023-03-01T04:39:13.006Z,29.10
2023-03-01T04:43:16.406Z,31.00
2023-03-01T04:47:19.289Z,30.63
2023-03-01T04:51:22.115Z,39.13
2023-03-01T04:55:26.808Z,29.92
2023-03-01T04:59:30.328Z,32.95
2023-03-01T05:03:33.125Z,30.23
2023-03-01T05:07:35.923Z,30.15
2023-03-01T05:11:40.081Z,29.58
2023-03-01T05:15:42.992Z,29.25
2023-03-01T05:19:45.905Z,27.38
2023-03-01T05:23:48.981Z,29.92
2023-03-01T05:27:53.151Z,32.00
2023-03-01T05:31:57.278Z,35.58
2023-03-01T05:36:02.328Z,34.22
2023-03-01T05:40:06.445Z,30.95
2023-03-01T05:44:12.639Z,33.20
2023-03-01T05:52:18.413Z,36.50
2023-03-01T05:56:23.251Z,30.30
2023-03-01T06:00:29.098Z,33.30
2023-03-01T06:04:31.904Z,29.35
2023-03-01T06:08:34.731Z,26.58
2023-03-01T06:12:39.131Z,29.52
2023-03-01T06:16:43.325Z,28.50
2023-03-01T06:20:46.180Z,36.55
2023-03-01T06:24:49.040Z,32.75
2023-03-01T06:28:51.872Z,34.10
2023-03-01T06:33:02.120Z,33.97
2023-03-01T06:37:06.109Z,29.42
2023-03-01T06:41:09.165Z,34.05
2023-03-01T06:45:12.648Z,35.75
2023-03-01T06:49:18.653Z,31.58
2023-03-01T06:53:21.465Z,30.30
2023-03-01T06:57:24.288Z,29.70
2023-03-01T07:01:27.510Z,37.25
2023-03-01T07:05:32.341Z,32.90
2023-03-01T07:09:35.391Z,34.53
2023-03-01T07:13:38.245Z,31.52
2023-03-01T07:17:41.142Z,30.08
2023-03-01T07:21:45.246Z,35.00
2023-03-01T07:25:53.711Z,34.92
2023-03-01T07:29:56.451Z,31.42
2023-03-01T07:33:59.728Z,29.63
2023-03-01T07:38:03.974Z,30.08
2023-03-01T07:42:06.766Z,37.30
2023-03-01T07:46:09.873Z,35.40
2023-03-01T07:50:14.411Z,34.50
2023-03-01T07:54:19.048Z,30.33
2023-03-01T07:58:21.918Z,31.10
2023-03-01T08:02:24.781Z,27.83
2023-03-01T08:06:27.679Z,34.35
2023-03-01T08:10:31.884Z,33.10
2023-03-01T08:14:34.790Z,29.52
2023-03-01T08:18:37.952Z,28.77
2023-03-01T08:22:40.889Z,34.00
2023-03-01T08:26:45.024Z,33.67
2023-03-01T08:30:47.842Z,36.00
2023-03-01T08:34:50.892Z,31.20
2023-03-01T08:38:53.954Z,31.33
2023-03-01T08:42:58.673Z,31.33
2023-03-01T08:47:03.187Z,27.00
2023-03-01T08:51:10.639Z,39.80
2023-03-01T08:55:13.472Z,29.83
2023-03-01T08:59:19.113Z,34.83
2023-03-01T09:03:21.954Z,32.50
2023-03-01T09:07:29.136Z,31.90
2023-03-01T09:11:32.652Z,29.95
2023-03-01T09:15:38.753Z,31.02
2023-03-01T09:19:41.808Z,32.40
2023-03-01T09:23:46.764Z,28.98
2023-03-01T09:27:49.551Z,31.30
2023-03-01T09:31:55.989Z,31.08
2023-03-01T09:35:59.480Z,27.80
2023-03-01T09:40:02.442Z,31.38
2023-03-01T09:44:12.701Z,28.92
2023-03-01T09:48:22.995Z,36.42
2023-03-01T09:52:31.532Z,31.10
2023-03-01T09:56:39.778Z,30.13
2023-03-01T10:00:46.742Z,30.10
2023-03-01T10:04:51.934Z,31.92
2023-03-01T10:08:58.412Z,31.17
2023-03-01T10:17:07.353Z,36.45
2023-03-01T10:21:18.103Z,37.58
2023-03-01T10:25:33.031Z,36.92
2023-03-01T10:29:43.239Z,36.40
2023-03-01T10:33:46.113Z,33.90
2023-03-01T10:38:04.356Z,31.98
2023-03-01T10:42:20.916Z,33.17
2023-03-01T10:46:26.589Z,32.20
2023-03-01T10:50:29.467Z,29.73
2023-03-01T10:54:34.766Z,34.70
2023-03-01T10:58:39.398Z,33.22
2023-03-01T11:02:42.225Z,33.38
2023-03-01T11:06:45.689Z,26.00
2023-03-01T11:10:49.862Z,24.30
2023-03-01T11:14:55.699Z,21.83
2023-03-01T11:19:01.063Z,23.60
2023-03-01T11:23:08.556Z,24.00
2023-03-01T11:27:20.885Z,24.52
2023-03-01T11:31:26.336Z,19.38
2023-03-01T11:35:30.792Z,18.23
2023-03-01T11:39:40.248Z,17.50
2023-03-01T11:43:53.512Z,17.75
2023-03-01T11:48:07.821Z,17.98
2023-03-01T11:52:16.893Z,19.10
2023-03-01T11:56:29.514Z,20.17
2023-03-01T12:00:46.526Z,20.98
2023-03-01T12:05:22.001Z,17.08
2023-03-01T12:09:58.006Z,18.23
2023-03-01T12:14:15.739Z,22.33
2023-03-01T12:18:50.046Z,23.02
2023-03-01T12:23:20.664Z,21.25
2023-03-01T12:27:44.951Z,21.52
2023-03-01T12:32:14.463Z,23.88
2023-03-01T12:36:43.719Z,21.95
2023-03-01T12:41:07.831Z,21.27
2023-03-01T12:50:42.621Z,24.77
2023-03-01T12:54:48.524Z,21.35
2023-03-01T12:59:01.715Z,28.38
2023-03-01T13:03:19.230Z,25.27
2023-03-01T13:07:31.734Z,21.45
2023-03-01T13:11:36.238Z,22.23
2023-03-01T13:15:40.490Z,22.40
2023-03-01T13:19:58.816Z,20.67
2023-03-01T13:24:01.894Z,22.98
2023-03-01T13:28:41.639Z,22.17
2023-03-01T13:32:45.363Z,23.60
2023-03-01T13:36:50.346Z,24.15
2023-03-01T13:41:01.633Z,23.73
2023-03-01T13:45:16.106Z,24.27
2023-03-01T13:49:22.154Z,25.05
2023-03-01T13:53:28.412Z,22.65
2023-03-01T13:57:35.419Z,21.73
2023-03-01T14:06:17.302Z,26.95
2023-03-01T14:10:21.266Z,24.42
2023-03-01T14:14:44.227Z,24.02
2023-03-01T14:18:57.067Z,34.47
2023-03-01T14:23:04.270Z,26.50
2023-03-01T14:27:13.053Z,26.42
2023-03-01T14:31:43.890Z,25.15
2023-03-01T14:35:57.503Z,28.42
2023-03-01T14:40:05.043Z,29.27
2023-03-01T14:44:14.421Z,28.15
2023-03-01T14:48:17.496Z,29.98
2023-03-01T14:52:23.496Z,27.08
2023-03-01T14:56:27.637Z,25.08
2023-03-01T15:00:32.442Z,26.27
2023-03-01T15:04:35.653Z,26.75
2023-03-01T15:08:42.077Z,25.63
2023-03-01T15:12:46.193Z,30.27
2023-03-01T15:16:50.326Z,30.15
2023-03-01T15:20:53.934Z,28.50
2023-03-01T15:24:56.993Z,31.58
2023-03-01T15:29:02.718Z,25.70
2023-03-01T15:33:38.862Z,29.20
2023-03-01T15:37:49.518Z,27.58
2023-03-01T15:41:52.280Z,32.80
2023-03-01T15:45:59.637Z,26.17
2023-03-01T15:50:03.355Z,30.23
2023-03-01T15:54:09.140Z,27.67
2023-03-01T15:58:15.513Z,26.52
2023-03-01T16:02:22.017Z,31.40
2023-03-01T16:06:24.917Z,31.75
2023-03-01T16:10:27.903Z,29.90
2023-03-01T16:14:30.759Z,23.13
2023-03-01T16:18:34.899Z,33.67
2023-03-01T16:22:37.759Z,29.60
2023-03-01T16:26:40.632Z,27.40
2023-03-01T16:30:49.247Z,27.98
2023-03-01T16:34:53.792Z,30.63
2023-03-01T16:38:57.108Z,26.52
2023-03-01T16:43:02.105Z,31.13
2023-03-01T16:47:04.981Z,33.20
2023-03-01T16:51:10.041Z,37.03
2023-03-01T16:55:13.284Z,35.45
2023-03-01T16:59:16.078Z,27.38
2023-03-01T17:03:19.043Z,28.90
2023-03-01T17:07:23.627Z,28.80
2023-03-01T17:11:26.731Z,30.10
2023-03-01T17:15:29.493Z,29.25
2023-03-01T17:19:32.784Z,31.35
2023-03-01T17:23:39.070Z,30.33
2023-03-01T17:27:42.411Z,37.92
2023-03-01T17:31:45.578Z,34.20
2023-03-01T17:35:48.764Z,41.78
2023-03-01T17:39:52.977Z,35.30
2023-03-01T17:43:55.820Z,41.20
2023-03-01T17:47:58.654Z,42.35
2023-03-01T17:52:01.658Z,47.85
2023-03-01T17:56:08.147Z,52.65
2023-03-01T18:00:13.928Z,53.25
2023-03-01T18:04:18.467Z,51.38
2023-03-01T18:08:21.306Z,48.63
2023-03-01T18:12:25.525Z,50.88
2023-03-01T18:16:31.882Z,39.22
2023-03-01T18:20:35.202Z,46.13
2023-03-01T18:24:38.674Z,52.75
2023-03-01T18:28:42.868Z,59.40
2023-03-01T18:32:45.979Z,63.97
2023-03-01T18:37:08.174Z,64.45
2023-03-01T18:41:11.455Z,58.22
2023-03-01T18:45:17.065Z,65.43
2023-03-01T18:49:20.403Z,101.75
2023-03-01T18:53:23.185Z,87.30
2023-03-01T18:57:26.071Z,59.13
2023-03-01T19:01:35.429Z,63.13
2023-03-01T19:05:42.063Z,51.45
2023-03-01T19:09:44.936Z,59.67
2023-03-01T19:13:51.731Z,53.10
2023-03-01T19:17:57.278Z,51.78
2023-03-01T19:22:05.985Z,50.97
2023-03-01T19:26:11.867Z,63.05
2023-03-01T19:30:15.206Z,59.90
2023-03-01T19:34:26.296Z,60.38
2023-03-01T19:38:30.571Z,62.88
2023-03-01T19:42:33.320Z,59.47
2023-03-01T19:46:36.552Z,59.15
2023-03-01T19:50:40.832Z,66.47
2023-03-01T19:54:43.641Z,60.08
2023-03-01T19:58:47.570Z,57.30
2023-03-01T20:02:50.431Z,62.13
2023-03-01T20:06:54.620Z,54.28
2023-03-01T20:11:03.274Z,53.15
2023-03-01T20:15:07.003Z,58.70
2023-03-01T20:19:09.812Z,52.60
2023-03-01T20:23:13.933Z,54.97
2023-03-01T20:27:16.717Z,68.40
2023-03-01T20:31:21.286Z,62.80
2023-03-01T20:35:24.285Z,61.35
2023-03-01T20:39:28.426Z,68.60
2023-03-01T20:43:31.614Z,71.43
2023-03-01T20:47:34.434Z,65.85
2023-03-01T20:51:37.312Z,65.80
2023-03-01T20:55:41.516Z,62.10
2023-03-01T20:59:44.298Z,60.53
2023-03-01T21:03:47.115Z,65.70
2023-03-01T21:07:51.244Z,67.25
2023-03-01T21:11:55.382Z,57.72
2023-03-01T21:16:00.975Z,43.28
2023-03-01T21:20:04.533Z,38.63
2023-03-01T21:24:10.132Z,37.70
2023-03-01T21:28:14.400Z,41.50
2023-03-01T21:32:17.309Z,36.70
2023-03-01T21:36:21.521Z,34.40
2023-03-01T21:40:24.319Z,34.88
2023-03-01T21:44:30.209Z,34.83
2023-03-01T21:48:33.788Z,35.05
2023-03-01T21:52:36.585Z,35.33
2023-03-01T21:56:39.934Z,39.47
2023-03-01T22:00:44.100Z,27.77
2023-03-01T22:04:46.868Z,33.10
2023-03-01T22:08:51.434Z,38.40
2023-03-01T22:12:54.588Z,38.22
2023-03-01T22:16:58.936Z,28.90
2023-03-01T22:21:05.672Z,32.85
2023-03-01T22:25:09.532Z,35.85
2023-03-01T22:29:14.516Z,35.40
2023-03-01T22:33:18.937Z,36.17
2023-03-01T22:37:21.706Z,39.35
2023-03-01T22:41:24.469Z,34.05
2023-03-01T22:45:29.961Z,34.30
2023-03-01T22:49:34.380Z,34.67
2023-03-01T22:53:37.137Z,38.97
2023-03-01T22:57:40.081Z,34.10
2023-03-01T23:01:46.488Z,37.90
2023-03-01T23:05:51.637Z,35.90
2023-03-01T23:09:54.429Z,39.40
2023-03-01T23:13:59.037Z,34.05
2023-03-01T23:18:01.855Z,34.33
2023-03-01T23:22:06.016Z,32.17
2023-03-01T23:26:09.087Z,35.33
2023-03-01T23:30:12.667Z,28.50
2023-03-01T23:34:15.721Z,28.25
2023-03-01T23:38:20.932Z,31.75
2023-03-01T23:42:23.708Z,33.28
2023-03-01T23:46:28.371Z,34.83
2023-03-01T23:50:31.149Z,32.65
2023-03-01T23:54:35.957Z,38.60
2023-03-01T23:58:38.742Z,33.40
